Time;durP1;ratioP1;P1;durP2;ratioP2;P2;SDS_P1;SDS_P2;PMS_P1;PMS_P2;Temp;Humidity;BMP_temperature;BMP_pressure;BME280_temperature;BME280_humidity;BME280_pressure;Samples;Min_cycle;Max_cycle;Signal;HPM_P1;HPM_P2
2021/07/17 00:00:36;;;;;;;;;;;22.00;78.40;;;;;;4995372;28;1039;-71
2021/07/17 00:03:03;;;;;;;;;;;22.00;78.40;;;;;;4995023;28;1966;-72
2021/07/17 00:05:28;;;;;;;;;;;22.00;78.40;;;;;;4995016;28;1062;-72
2021/07/17 00:07:54;;;;;;;;;;;22.00;78.40;;;;;;4977813;28;1133;-72
2021/07/17 00:10:20;;;;;;;;;;;22.10;78.50;;;;;;4994814;28;1125;-72
2021/07/17 00:12:46;;;;;;;;;;;22.00;78.40;;;;;;4977460;28;1268;-73
2021/07/17 00:15:12;;;;;;;;;;;22.00;78.40;;;;;;4994684;28;1117;-72
2021/07/17 00:17:38;;;;;;;;;;;22.00;78.40;;;;;;4994853;28;1089;-71
2021/07/17 00:20:13;;;;;;;;;;;22.00;78.40;;;;;;4978617;28;1082;-71
2021/07/17 00:22:38;;;;;;;;;;;22.00;78.40;;;;;;4981336;28;1256;-72
2021/07/17 00:25:05;;;;;;;;;;;22.00;78.40;;;;;;4994172;28;1914;-73
2021/07/17 00:27:31;;;;;;;;;;;22.00;78.40;;;;;;4977419;28;1181;-71
2021/07/17 00:29:57;;;;;;;;;;;22.00;78.40;;;;;;4994651;28;1070;-72
2021/07/17 00:32:22;;;;;;;;;;;22.00;78.40;;;;;;4994698;28;1873;-72
2021/07/17 00:34:48;;;;;;;;;;;22.00;78.40;;;;;;4979178;28;1262;-72
2021/07/17 00:37:13;;;;;;;;;;;22.00;78.40;;;;;;4994401;28;1093;-72
2021/07/17 00:39:38;;;;;;;;;;;22.00;78.40;;;;;;4994497;28;1160;-72
2021/07/17 00:42:04;;;;;;;;;;;22.00;78.40;;;;;;4994323;28;1038;-71
2021/07/17 00:44:29;;;;;;;;;;;22.00;78.40;;;;;;4994409;28;1906;-72
2021/07/17 00:46:55;;;;;;;;;;;22.00;78.40;;;;;;4994205;28;1069;-72
2021/07/17 00:49:21;;;;;;;;;;;22.00;78.40;;;;;;4994554;28;1117;-72
2021/07/17 00:51:47;;;;;;;;;;;22.00;78.40;;;;;;4977246;28;1034;-72
2021/07/17 00:54:16;;;;;;;;;;;22.00;78.40;;;;;;4993897;28;1194;-72
2021/07/17 00:56:41;;;;;;;;;;;22.00;78.40;;;;;;4994144;28;1143;-72
2021/07/17 00:59:07;;;;;;;;;;;22.00;78.40;;;;;;4976747;28;1137;-72
2021/07/17 01:01:33;;;;;;;;;;;22.10;78.40;;;;;;4976758;28;1189;-74
2021/07/17 01:03:59;;;;;;;;;;;22.00;78.40;;;;;;4993836;28;1902;-73
2021/07/17 01:06:24;;;;;;;;;;;22.00;78.40;;;;;;4976747;28;1105;-73
2021/07/17 01:08:50;;;;;;;;;;;22.00;78.40;;;;;;4993971;28;1105;-73
2021/07/17 01:11:15;;;;;;;;;;;22.00;78.30;;;;;;4994050;28;1118;-73
2021/07/17 01:13:40;;;;;;;;;;;22.10;78.40;;;;;;4993161;28;1208;-74
2021/07/17 01:16:06;;;;;;;;;;;22.00;78.30;;;;;;4993462;28;1070;-74
2021/07/17 01:18:31;;;;;;;;;;;22.00;78.40;;;;;;4993892;28;1065;-73
2021/07/17 01:20:57;;;;;;;;;;;22.00;78.30;;;;;;4999608;28;1050;-73
2021/07/17 01:23:22;;;;;;;;;;;22.00;78.30;;;;;;4975972;28;2014;-74
2021/07/17 01:25:48;;;;;;;;;;;22.00;79.10;;;;;;4975941;28;1094;-74
2021/07/17 01:28:13;;;;;;;;;;;22.00;78.30;;;;;;4976422;28;1145;-73
2021/07/17 01:30:38;;;;;;;;;;;22.00;78.30;;;;;;4976171;28;1074;-74
2021/07/17 01:33:05;;;;;;;;;;;22.10;78.40;;;;;;4993533;28;1358;-73
2021/07/17 01:35:30;;;;;;;;;;;22.00;78.30;;;;;;4976110;28;1125;-74
2021/07/17 01:37:56;;;;;;;;;;;22.00;78.30;;;;;;4976187;28;1160;-74
2021/07/17 01:40:21;;;;;;;;;;;22.00;78.30;;;;;;4993459;28;1109;-74
2021/07/17 01:42:47;;;;;;;;;;;22.00;78.30;;;;;;4993501;28;1277;-75
2021/07/17 01:45:19;;;;;;;;;;;22.00;78.30;;;;;;4993130;28;1306;-75
2021/07/17 01:47:44;;;;;;;;;;;22.00;78.30;;;;;;4976290;28;1133;-74
2021/07/17 01:50:10;;;;;;;;;;;22.00;78.30;;;;;;4993373;28;1053;-74
2021/07/17 01:52:35;;;;;;;;;;;22.00;78.30;;;;;;4993847;28;1201;-74
2021/07/17 01:55:01;;;;;;;;;;;22.00;78.30;;;;;;4992952;28;1078;-72
2021/07/17 01:57:26;;;;;;;;;;;22.00;78.30;;;;;;4976107;28;1176;-74
2021/07/17 01:59:52;;;;;;;;;;;22.00;78.30;;;;;;4993217;28;1073;-74
2021/07/17 02:02:17;;;;;;;;;;;22.00;78.30;;;;;;4976339;28;1125;-73
2021/07/17 02:04:43;;;;;;;;;;;22.00;78.30;;;;;;4992894;28;1906;-74
2021/07/17 02:07:08;;;;;;;;;;;22.00;78.30;;;;;;4993203;28;1078;-73
2021/07/17 02:09:33;;;;;;;;;;;22.00;78.30;;;;;;4993396;28;1105;-73
2021/07/17 02:11:59;;;;;;;;;;;22.00;78.30;;;;;;4975992;28;1074;-73
2021/07/17 02:14:24;;;;;;;;;;;22.00;78.30;;;;;;4975551;28;1186;-73
2021/07/17 02:16:50;;;;;;;;;;;22.00;78.30;;;;;;4975836;28;1168;-74
2021/07/17 02:19:20;;;;;;;;;;;22.00;78.30;;;;;;4975930;28;1132;-73
2021/07/17 02:21:49;;;;;;;;;;;22.00;78.30;;;;;;4999723;28;1081;-74
2021/07/17 02:24:15;;;;;;;;;;;22.00;78.30;;;;;;4975346;28;1903;-73
2021/07/17 02:26:40;;;;;;;;;;;22.00;78.30;;;;;;4979639;28;1089;-72
2021/07/17 02:29:05;;;;;;;;;;;22.00;78.30;;;;;;4996929;28;1074;-72
2021/07/17 02:31:31;;;;;;;;;;;22.00;78.30;;;;;;4996782;28;1133;-73
2021/07/17 02:33:56;;;;;;;;;;;22.00;78.30;;;;;;4996596;28;1267;-74
2021/07/17 02:36:23;;;;;;;;;;;22.00;78.30;;;;;;4978999;28;1149;-72
2021/07/17 02:38:49;;;;;;;;;;;22.00;78.40;;;;;;4996762;28;1145;-74
2021/07/17 02:41:14;;;;;;;;;;;22.00;78.30;;;;;;4996595;28;1077;-73
2021/07/17 02:43:40;;;;;;;;;;;22.00;78.30;;;;;;4996603;28;1882;-72
2021/07/17 02:46:05;;;;;;;;;;;22.00;78.30;;;;;;4996337;28;1054;-74
2021/07/17 02:48:30;;;;;;;;;;;22.00;78.30;;;;;;4998755;28;1178;-74
2021/07/17 02:50:56;;;;;;;;;;;22.10;78.30;;;;;;5016076;28;1096;-73
2021/07/17 02:53:21;;;;;;;;;;;22.00;78.30;;;;;;5001071;28;1358;-73
2021/07/17 02:55:47;;;;;;;;;;;22.10;78.40;;;;;;4996442;28;1066;-73
2021/07/17 02:58:12;;;;;;;;;;;22.00;78.30;;;;;;4996598;28;1187;-73
2021/07/17 03:00:38;;;;;;;;;;;22.00;78.30;;;;;;4996384;28;1086;-74
2021/07/17 03:03:03;;;;;;;;;;;22.00;78.30;;;;;;4979017;28;1906;-73
2021/07/17 03:05:29;;;;;;;;;;;22.00;79.00;;;;;;4978382;28;1227;-73
2021/07/17 03:07:54;;;;;;;;;;;22.10;78.30;;;;;;4978891;28;1074;-73
2021/07/17 03:10:20;;;;;;;;;;;22.10;78.30;;;;;;4996389;28;1128;-74
2021/07/17 03:12:45;;;;;;;;;;;22.10;78.30;;;;;;4996095;28;1204;-73
2021/07/17 03:15:11;;;;;;;;;;;22.00;78.30;;;;;;4978513;28;1133;-73
2021/07/17 03:17:36;;;;;;;;;;;22.00;78.20;;;;;;4996158;28;1165;-73
2021/07/17 03:20:02;;;;;;;;;;;22.10;78.30;;;;;;4979277;28;1133;-73
2021/07/17 03:22:28;;;;;;;;;;;22.00;78.20;;;;;;5015695;28;1025;-74
2021/07/17 03:24:53;;;;;;;;;;;22.00;78.20;;;;;;5015228;28;1903;-73
2021/07/17 03:27:19;;;;;;;;;;;22.00;78.30;;;;;;5015437;28;1101;-73
2021/07/17 03:29:44;;;;;;;;;;;22.00;78.30;;;;;;5015623;28;1116;-73
2021/07/17 03:32:10;;;;;;;;;;;22.00;78.30;;;;;;5015604;28;1120;-73
2021/07/17 03:34:36;;;;;;;;;;;22.00;78.30;;;;;;5014761;28;1231;-73
2021/07/17 03:37:01;;;;;;;;;;;22.10;78.30;;;;;;5014720;28;1069;-73
2021/07/17 03:39:26;;;;;;;;;;;22.00;78.30;;;;;;5015338;28;1120;-73
2021/07/17 03:41:52;;;;;;;;;;;22.00;78.30;;;;;;5015276;28;1136;-73
2021/07/17 03:44:18;;;;;;;;;;;22.00;78.20;;;;;;5007334;28;1910;-73
2021/07/17 03:46:44;;;;;;;;;;;22.00;78.20;;;;;;4995654;28;1094;-73
2021/07/17 03:49:09;;;;;;;;;;;22.10;78.30;;;;;;4995315;28;1074;-74
2021/07/17 03:51:35;;;;;;;;;;;22.10;78.30;;;;;;4995528;28;1110;-73
2021/07/17 03:54:00;;;;;;;;;;;22.10;78.30;;;;;;4995252;28;1223;-72
2021/07/17 03:56:25;;;;;;;;;;;22.10;78.30;;;;;;4995340;28;1184;-73
2021/07/17 03:58:51;;;;;;;;;;;22.00;78.30;;;;;;4995417;28;1137;-73
2021/07/17 04:01:17;;;;;;;;;;;22.00;78.30;;;;;;4995327;28;1193;-72
2021/07/17 04:03:45;;;;;;;;;;;22.10;78.40;;;;;;4995285;28;1967;-73
2021/07/17 04:06:10;;;;;;;;;;;22.10;78.30;;;;;;4994967;28;1069;-73
2021/07/17 04:08:36;;;;;;;;;;;22.00;78.30;;;;;;4977989;28;1058;-73
2021/07/17 04:11:01;;;;;;;;;;;22.00;78.30;;;;;;4995103;28;1046;-73
2021/07/17 04:13:27;;;;;;;;;;;22.00;78.30;;;;;;4995152;28;1374;-73
2021/07/17 04:15:54;;;;;;;;;;;22.00;78.30;;;;;;4994804;28;1153;-73
2021/07/17 04:18:19;;;;;;;;;;;22.00;78.30;;;;;;4995267;28;1046;-73
2021/07/17 04:20:45;;;;;;;;;;;22.00;78.30;;;;;;5001459;28;1046;-73
2021/07/17 04:23:10;;;;;;;;;;;22.10;78.30;;;;;;4994787;28;1907;-72
2021/07/17 04:25:35;;;;;;;;;;;22.10;78.30;;;;;;4994574;28;1074;-73
2021/07/17 04:28:01;;;;;;;;;;;22.00;78.30;;;;;;4994952;28;1216;-73
2021/07/17 04:30:26;;;;;;;;;;;22.00;78.20;;;;;;4994789;28;1157;-73
2021/07/17 04:32:54;;;;;;;;;;;22.00;78.20;;;;;;4994345;28;1287;-74
2021/07/17 04:35:20;;;;;;;;;;;22.10;78.30;;;;;;4994418;28;1093;-74
2021/07/17 04:37:48;;;;;;;;;;;22.00;78.30;;;;;;4977260;28;1198;-73
2021/07/17 04:40:13;;;;;;;;;;;22.00;78.30;;;;;;4994978;28;1081;-74
2021/07/17 04:42:39;;;;;;;;;;;22.00;79.00;;;;;;4994529;28;1354;-73
2021/07/17 04:45:04;;;;;;;;;;;22.00;78.30;;;;;;4994171;28;1972;-74
2021/07/17 04:47:30;;;;;;;;;;;22.00;78.20;;;;;;4994156;28;1105;-74
2021/07/17 04:49:55;;;;;;;;;;;22.10;78.30;;;;;;4993552;28;1219;-74
2021/07/17 04:52:21;;;;;;;;;;;22.10;78.30;;;;;;4994710;28;1160;-74
2021/07/17 04:54:46;;;;;;;;;;;22.00;78.20;;;;;;4994033;28;1205;-75
2021/07/17 04:57:12;;;;;;;;;;;22.10;78.30;;;;;;4994134;28;1089;-75
2021/07/17 04:59:37;;;;;;;;;;;22.10;78.30;;;;;;4994175;28;1090;-75
2021/07/17 05:02:02;;;;;;;;;;;22.00;78.20;;;;;;4976807;28;1149;-75
2021/07/17 05:04:28;;;;;;;;;;;22.10;78.30;;;;;;4994085;28;1906;-74
2021/07/17 05:06:53;;;;;;;;;;;22.10;78.30;;;;;;4994011;28;1201;-74
2021/07/17 05:09:19;;;;;;;;;;;22.00;78.30;;;;;;4976896;28;1062;-74
2021/07/17 05:11:44;;;;;;;;;;;22.00;78.40;;;;;;4993971;28;1129;-74
2021/07/17 05:14:10;;;;;;;;;;;22.10;78.50;;;;;;4976387;28;1303;-75
2021/07/17 05:16:35;;;;;;;;;;;22.00;78.50;;;;;;4976364;28;1287;-74
2021/07/17 05:19:00;;;;;;;;;;;22.10;78.60;;;;;;4993948;28;1065;-74
2021/07/17 05:21:26;;;;;;;;;;;22.10;78.60;;;;;;5000433;28;1212;-75
2021/07/17 05:23:51;;;;;;;;;;;22.10;78.50;;;;;;4993749;28;1910;-74
2021/07/17 05:26:17;;;;;;;;;;;22.10;78.40;;;;;;4993455;28;1129;-74
2021/07/17 05:28:42;;;;;;;;;;;22.10;78.40;;;;;;4993915;28;1074;-75
2021/07/17 05:31:08;;;;;;;;;;;22.10;78.40;;;;;;4976049;28;1110;-75
2021/07/17 05:33:33;;;;;;;;;;;22.10;78.40;;;;;;4993543;28;1267;-74
2021/07/17 05:35:58;;;;;;;;;;;22.10;78.40;;;;;;4993283;28;1224;-74
2021/07/17 05:38:24;;;;;;;;;;;22.10;78.40;;;;;;4976382;28;1086;-75
2021/07/17 05:40:49;;;;;;;;;;;22.10;78.30;;;;;;4993526;28;1117;-74
2021/07/17 05:43:15;;;;;;;;;;;22.10;78.30;;;;;;4993497;28;1981;-74
2021/07/17 05:45:40;;;;;;;;;;;22.10;78.30;;;;;;4975715;28;1239;-74
2021/07/17 05:48:06;;;;;;;;;;;22.10;78.40;;;;;;4993618;28;1144;-74
2021/07/17 05:50:31;;;;;;;;;;;22.10;78.30;;;;;;4993455;28;1097;-73
2021/07/17 05:52:57;;;;;;;;;;;22.10;78.30;;;;;;4976551;28;1294;-74
2021/07/17 05:55:22;;;;;;;;;;;22.10;78.30;;;;;;4993045;28;1117;-75
2021/07/17 05:57:48;;;;;;;;;;;22.10;78.30;;;;;;4976323;28;1070;-74
2021/07/17 06:00:19;;;;;;;;;;;22.00;78.20;;;;;;4994992;28;1102;-74
2021/07/17 06:02:44;;;;;;;;;;;22.10;78.30;;;;;;4997514;28;1292;-74
2021/07/17 06:05:10;;;;;;;;;;;22.10;78.20;;;;;;4997079;28;1963;-74
2021/07/17 06:07:35;;;;;;;;;;;22.10;78.20;;;;;;4980043;28;1106;-74
2021/07/17 06:10:00;;;;;;;;;;;22.10;78.20;;;;;;4997326;28;1169;-74
2021/07/17 06:12:26;;;;;;;;;;;22.10;78.20;;;;;;4997385;28;1086;-74
2021/07/17 06:14:51;;;;;;;;;;;22.10;78.30;;;;;;4979250;28;1328;-74
2021/07/17 06:17:17;;;;;;;;;;;22.10;78.30;;;;;;4997211;28;1128;-74
2021/07/17 06:19:42;;;;;;;;;;;22.10;78.20;;;;;;4997085;28;1176;-74
2021/07/17 06:22:10;;;;;;;;;;;22.10;78.30;;;;;;5004437;28;1120;-74
2021/07/17 06:24:36;;;;;;;;;;;22.10;78.30;;;;;;4979140;28;1898;-74
2021/07/17 06:27:02;;;;;;;;;;;22.10;78.30;;;;;;4997127;28;1133;-74
2021/07/17 06:29:27;;;;;;;;;;;22.10;78.40;;;;;;4997071;28;1042;-74
2021/07/17 06:31:52;;;;;;;;;;;22.10;78.40;;;;;;4997000;28;1050;-71
2021/07/17 06:34:18;;;;;;;;;;;22.10;78.30;;;;;;4978713;28;1371;-71
2021/07/17 06:36:43;;;;;;;;;;;22.10;78.30;;;;;;4997054;28;1231;-70
2021/07/17 06:39:09;;;;;;;;;;;22.00;78.30;;;;;;4979230;28;1569;-71
2021/07/17 06:41:34;;;;;;;;;;;22.10;78.30;;;;;;4994414;28;1498;-71
2021/07/17 06:44:00;;;;;;;;;;;22.10;78.30;;;;;;4995852;28;1914;-71
2021/07/17 06:46:25;;;;;;;;;;;22.10;78.30;;;;;;4995900;28;1628;-71
2021/07/17 06:48:50;;;;;;;;;;;22.10;78.30;;;;;;4996588;28;1422;-71
2021/07/17 06:51:16;;;;;;;;;;;22.10;78.30;;;;;;4979355;28;1153;-71
2021/07/17 06:53:42;;;;;;;;;;;22.10;78.30;;;;;;4979810;28;1457;-71
2021/07/17 06:56:07;;;;;;;;;;;22.10;78.30;;;;;;4996396;28;1610;-71
2021/07/17 06:58:32;;;;;;;;;;;22.10;78.30;;;;;;4996611;28;1565;-71
2021/07/17 07:00:58;;;;;;;;;;;22.10;78.30;;;;;;4996639;28;1598;-71
2021/07/17 07:03:23;;;;;;;;;;;22.10;78.30;;;;;;4996383;28;1906;-71
2021/07/17 07:05:49;;;;;;;;;;;22.10;78.30;;;;;;4996306;28;1345;-71
2021/07/17 07:08:14;;;;;;;;;;;22.10;78.40;;;;;;4996640;28;1679;-71
2021/07/17 07:10:40;;;;;;;;;;;22.10;78.60;;;;;;4996513;28;1677;-71
2021/07/17 07:13:11;;;;;;;;;;;22.10;78.70;;;;;;4977868;28;1636;-71
2021/07/17 07:15:37;;;;;;;;;;;22.10;78.80;;;;;;4978817;28;1626;-71
2021/07/17 07:18:03;;;;;;;;;;;22.10;78.70;;;;;;4979013;28;1516;-71
2021/07/17 07:20:28;;;;;;;;;;;22.10;78.60;;;;;;4982967;28;1063;-71
2021/07/17 07:22:54;;;;;;;;;;;22.10;78.60;;;;;;4997981;28;1265;-70
2021/07/17 07:25:19;;;;;;;;;;;22.10;78.60;;;;;;4995771;28;1894;-71
2021/07/17 07:27:45;;;;;;;;;;;22.10;78.60;;;;;;4996313;28;982;-70
2021/07/17 07:30:10;;;;;;;;;;;22.10;78.50;;;;;;4996314;28;1082;-71
2021/07/17 07:32:36;;;;;;;;;;;22.10;78.50;;;;;;4995801;28;1279;-71
2021/07/17 07:35:01;;;;;;;;;;;22.10;78.50;;;;;;4995653;28;1164;-72
2021/07/17 07:37:27;;;;;;;;;;;22.10;78.50;;;;;;4995876;28;1177;-71
2021/07/17 07:39:54;;;;;;;;;;;22.10;78.50;;;;;;4995908;28;1086;-70
2021/07/17 07:42:20;;;;;;;;;;;22.10;78.40;;;;;;4995547;28;1078;-71
2021/07/17 07:44:45;;;;;;;;;;;22.10;78.40;;;;;;4995321;28;1903;-71
2021/07/17 07:47:10;;;;;;;;;;;22.10;78.40;;;;;;4995522;28;1126;-71
2021/07/17 07:49:36;;;;;;;;;;;22.10;78.40;;;;;;4995580;28;1260;-70
2021/07/17 07:52:01;;;;;;;;;;;22.10;78.40;;;;;;4999882;28;1121;-71
2021/07/17 07:54:27;;;;;;;;;;;22.10;78.40;;;;;;5003528;28;1222;-71
2021/07/17 07:56:52;;;;;;;;;;;22.10;78.40;;;;;;4995227;28;1097;-71
2021/07/17 07:59:18;;;;;;;;;;;22.10;78.40;;;;;;4995458;28;1113;-71
2021/07/17 08:01:43;;;;;;;;;;;22.10;78.40;;;;;;4995190;28;1053;-71
2021/07/17 08:04:12;;;;;;;;;;;22.10;78.40;;;;;;4994914;28;1906;-71
2021/07/17 08:06:37;;;;;;;;;;;22.10;78.40;;;;;;4995232;28;1110;-71
2021/07/17 08:09:03;;;;;;;;;;;22.10;78.30;;;;;;4977975;28;1184;-71
2021/07/17 08:11:28;;;;;;;;;;;22.10;78.40;;;;;;4977534;28;1106;-71
2021/07/17 08:13:54;;;;;;;;;;;22.10;78.40;;;;;;4994982;28;1394;-71
2021/07/17 08:16:19;;;;;;;;;;;22.10;78.30;;;;;;4994748;28;1113;-71
2021/07/17 08:18:45;;;;;;;;;;;22.10;78.30;;;;;;4995069;28;1267;-70
2021/07/17 08:21:10;;;;;;;;;;;22.10;78.30;;;;;;5000757;28;1165;-71
2021/07/17 08:23:36;;;;;;;;;;;22.10;78.40;;;;;;4977459;28;1902;-71
2021/07/17 08:26:01;;;;;;;;;;;22.10;78.40;;;;;;4994876;28;1050;-71
2021/07/17 08:28:26;;;;;;;;;;;22.10;78.40;;;;;;4995033;28;1132;-71
2021/07/17 08:30:52;;;;;;;;;;;22.10;78.30;;;;;;4994613;28;1176;-71
2021/07/17 08:33:17;;;;;;;;;;;22.10;78.30;;;;;;4977308;28;1227;-71
2021/07/17 08:35:43;;;;;;;;;;;22.10;78.30;;;;;;4994467;28;1101;-71
2021/07/17 08:38:08;;;;;;;;;;;22.10;78.30;;;;;;4994826;28;1094;-71
2021/07/17 08:40:34;;;;;;;;;;;22.10;78.30;;;;;;4994833;28;1109;-71
2021/07/17 08:42:59;;;;;;;;;;;22.10;78.30;;;;;;4977042;28;1283;-71
2021/07/17 08:45:25;;;;;;;;;;;22.10;78.30;;;;;;4994051;28;2013;-71
2021/07/17 08:47:51;;;;;;;;;;;22.10;78.30;;;;;;4994425;28;1061;-70
2021/07/17 08:50:18;;;;;;;;;;;22.10;78.40;;;;;;4994641;28;1196;-71
2021/07/17 08:52:44;;;;;;;;;;;22.10;78.40;;;;;;5004485;28;1379;-71
2021/07/17 08:55:09;;;;;;;;;;;22.10;78.40;;;;;;4979409;28;1127;-71
2021/07/17 08:57:35;;;;;;;;;;;22.10;78.40;;;;;;4994143;28;1156;-71
2021/07/17 09:00:03;;;;;;;;;;;22.10;78.40;;;;;;4994184;28;1114;-71
2021/07/17 09:02:28;;;;;;;;;;;22.10;78.40;;;;;;4994352;28;1066;-70
2021/07/17 09:04:54;;;;;;;;;;;22.10;78.40;;;;;;4993744;28;1968;-71
2021/07/17 09:07:19;;;;;;;;;;;22.10;78.40;;;;;;4994239;28;1078;-71
2021/07/17 09:09:45;;;;;;;;;;;22.10;78.40;;;;;;4993948;28;1133;-71
2021/07/17 09:12:20;;;;;;;;;;;22.10;78.40;;;;;;4994015;28;1089;-71
2021/07/17 09:14:46;;;;;;;;;;;22.10;78.40;;;;;;4993662;28;1288;-70
2021/07/17 09:17:11;;;;;;;;;;;22.10;78.40;;;;;;4993928;28;1058;-70
2021/07/17 09:19:36;;;;;;;;;;;22.10;78.40;;;;;;4976490;28;1546;-71
2021/07/17 09:22:02;;;;;;;;;;;22.10;78.40;;;;;;4982580;28;1137;-71
2021/07/17 09:24:28;;;;;;;;;;;22.10;78.40;;;;;;4975905;28;1902;-71
2021/07/17 09:26:54;;;;;;;;;;;22.10;78.40;;;;;;4976492;28;1145;-70
2021/07/17 09:29:19;;;;;;;;;;;22.00;78.30;;;;;;4976479;28;1133;-71
2021/07/17 09:31:48;;;;;;;;;;;22.10;78.40;;;;;;4976290;28;1145;-71
2021/07/17 09:34:13;;;;;;;;;;;22.10;78.40;;;;;;4992913;28;1288;-70
2021/07/17 09:36:51;;;;;;;;;;;22.10;78.40;;;;;;4993663;28;1081;-71
2021/07/17 09:39:17;;;;;;;;;;;22.10;78.40;;;;;;4976279;28;1074;-71
2021/07/17 09:41:51;;;;;;;;;;;22.10;78.40;;;;;;4976172;28;1082;-71
2021/07/17 09:44:16;;;;;;;;;;;22.10;78.40;;;;;;4993178;28;1906;-71
2021/07/17 09:46:41;;;;;;;;;;;22.10;78.40;;;;;;4976165;28;1539;-71
2021/07/17 09:49:07;;;;;;;;;;;22.10;79.10;;;;;;4976212;28;1551;-71
2021/07/17 09:51:33;;;;;;;;;;;22.10;78.40;;;;;;4993798;28;1129;-71
2021/07/17 09:54:00;;;;;;;;;;;22.10;78.40;;;;;;4993309;28;1198;-71
2021/07/17 09:56:27;;;;;;;;;;;22.10;78.40;;;;;;4993874;28;1078;-71
2021/07/17 09:58:53;;;;;;;;;;;22.00;78.30;;;;;;4993511;28;1089;-71
2021/07/17 10:01:23;;;;;;;;;;;22.10;78.40;;;;;;4993718;28;1084;-71
2021/07/17 10:03:50;;;;;;;;;;;22.10;78.40;;;;;;4993330;28;1914;-70
2021/07/17 10:06:28;;;;;;;;;;;22.10;78.40;;;;;;4975548;28;1372;-71
2021/07/17 10:08:54;;;;;;;;;;;22.10;78.40;;;;;;4993596;28;1136;-71
2021/07/17 10:11:23;;;;;;;;;;;22.10;78.30;;;;;;4993344;28;1196;-71
2021/07/17 10:13:49;;;;;;;;;;;22.10;78.30;;;;;;4993294;28;1307;-71
2021/07/17 10:16:15;;;;;;;;;;;22.10;78.30;;;;;;4993039;28;1105;-71
2021/07/17 10:18:41;;;;;;;;;;;22.10;79.10;;;;;;4993152;28;1085;-71
2021/07/17 10:21:06;;;;;;;;;;;22.10;78.30;;;;;;4982254;28;1113;-71
2021/07/17 10:23:32;;;;;;;;;;;22.00;78.30;;;;;;4993146;28;1930;-71
2021/07/17 10:25:57;;;;;;;;;;;22.10;78.30;;;;;;4975643;28;1106;-70
2021/07/17 10:28:23;;;;;;;;;;;22.10;78.30;;;;;;4993219;28;1077;-71
2021/07/17 10:30:49;;;;;;;;;;;22.10;78.30;;;;;;4993052;28;1108;-71
2021/07/17 10:33:14;;;;;;;;;;;22.00;78.30;;;;;;5019119;22;1933;-67
2021/07/17 10:35:39;;;;;;;;;;;22.00;78.30;;;;;;4999318;28;1419;-67
2021/07/17 10:38:06;;;;;;;;;;;22.10;78.40;;;;;;5001359;28;919;-66
2021/07/17 10:40:32;;;;;;;;;;;22.00;78.30;;;;;;4994271;28;1113;-66
2021/07/17 10:42:57;;;;;;;;;;;22.10;78.30;;;;;;4994574;28;1263;-66
2021/07/17 10:45:36;;;;;;;;;;;22.10;78.40;;;;;;4978112;28;1980;-66
2021/07/17 10:48:02;;;;;;;;;;;22.00;78.30;;;;;;4978873;28;1116;-66
2021/07/17 10:50:35;;;;;;;;;;;22.00;78.30;;;;;;4978779;28;1093;-66
2021/07/17 10:53:00;;;;;;;;;;;22.10;78.30;;;;;;4978808;28;1295;-66
2021/07/17 10:55:26;;;;;;;;;;;22.00;78.20;;;;;;4977669;28;1141;-66
2021/07/17 10:57:51;;;;;;;;;;;22.10;78.30;;;;;;4996104;28;1066;-66
2021/07/17 11:00:35;;;;;;;;;;;22.00;78.20;;;;;;4978484;28;1212;-66
2021/07/17 11:03:29;;;;;;;;;;;22.10;78.30;;;;;;4995450;28;1334;-66
2021/07/17 11:05:54;;;;;;;;;;;22.00;78.30;;;;;;4993731;28;1042;-66
2021/07/17 11:08:32;;;;;;;;;;;22.10;78.30;;;;;;4996070;28;1160;-66
2021/07/17 11:10:57;;;;;;;;;;;22.10;78.30;;;;;;4996093;28;1108;-67
2021/07/17 11:13:34;;;;;;;;;;;22.10;78.40;;;;;;4995756;28;1227;-67
2021/07/17 11:15:59;;;;;;;;;;;22.00;78.30;;;;;;4995122;28;1093;-66
2021/07/17 11:18:25;;;;;;;;;;;22.10;78.30;;;;;;4996015;28;1061;-66
2021/07/17 11:20:58;;;;;;;;;;;22.00;78.30;;;;;;5007561;28;1081;-66
2021/07/17 11:23:23;;;;;;;;;;;22.00;78.30;;;;;;4995725;28;1922;-67
2021/07/17 11:25:53;;;;;;;;;;;22.10;78.30;;;;;;4994449;28;1101;-66
2021/07/17 11:28:51;;;;;;;;;;;22.10;78.30;;;;;;4978495;28;1185;-66
2021/07/17 11:31:28;;;;;;;;;;;22.10;78.30;;;;;;4987780;28;1536;-66
2021/07/17 11:34:05;;;;;;;;;;;22.10;78.30;;;;;;4995051;28;1366;-67
2021/07/17 11:36:31;;;;;;;;;;;22.00;78.30;;;;;;4995096;28;1041;-66
2021/07/17 11:38:56;;;;;;;;;;;22.10;78.40;;;;;;4977783;28;1006;-66
2021/07/17 11:41:21;;;;;;;;;;;22.00;78.30;;;;;;4995168;28;1077;-65
2021/07/17 11:43:50;;;;;;;;;;;22.00;78.30;;;;;;4994897;28;1890;-66
2021/07/17 11:46:15;;;;;;;;;;;22.00;78.30;;;;;;5004413;28;1148;-66
2021/07/17 11:48:41;;;;;;;;;;;22.00;78.30;;;;;;5014875;28;1072;-66
2021/07/17 11:51:06;;;;;;;;;;;22.00;78.30;;;;;;5015008;28;1096;-67
2021/07/17 11:53:32;;;;;;;;;;;22.10;78.40;;;;;;5024086;28;1219;-65
2021/07/17 11:55:57;;;;;;;;;;;22.10;78.40;;;;;;4994592;28;1116;-66
2021/07/17 11:58:23;;;;;;;;;;;22.00;78.30;;;;;;4994564;28;1159;-66
2021/07/17 12:00:59;;;;;;;;;;;22.10;78.40;;;;;;4994683;28;1073;-66
2021/07/17 12:03:24;;;;;;;;;;;22.00;78.30;;;;;;4994731;28;1887;-66
2021/07/17 12:05:50;;;;;;;;;;;22.10;78.40;;;;;;4994235;28;1128;-66
2021/07/17 12:08:15;;;;;;;;;;;22.00;78.30;;;;;;4995038;28;1078;-66
2021/07/17 12:10:40;;;;;;;;;;;22.00;78.30;;;;;;4977227;28;1357;-66
2021/07/17 12:13:06;;;;;;;;;;;22.00;78.30;;;;;;4994066;28;1271;-66
2021/07/17 12:15:33;;;;;;;;;;;22.00;78.30;;;;;;4993996;28;1222;-66
2021/07/17 12:18:03;;;;;;;;;;;22.00;78.30;;;;;;4977547;28;1102;-66
2021/07/17 12:20:29;;;;;;;;;;;22.00;78.30;;;;;;5003722;28;1053;-66
2021/07/17 12:22:56;;;;;;;;;;;22.00;78.20;;;;;;4979349;28;1097;-66
2021/07/17 12:25:23;;;;;;;;;;;22.00;78.30;;;;;;4994488;28;1898;-67
2021/07/17 12:27:49;;;;;;;;;;;22.10;78.30;;;;;;4976866;28;1102;-66
2021/07/17 12:30:15;;;;;;;;;;;22.10;78.30;;;;;;4994618;28;1132;-66
2021/07/17 12:32:40;;;;;;;;;;;22.00;78.30;;;;;;4994263;28;1165;-65
2021/07/17 12:35:05;;;;;;;;;;;22.00;78.30;;;;;;4993565;28;1231;-66
2021/07/17 12:37:31;;;;;;;;;;;22.10;78.40;;;;;;4994822;28;1132;-66
2021/07/17 12:40:22;;;;;;;;;;;22.00;78.30;;;;;;4993738;28;1085;-66
2021/07/17 12:42:48;;;;;;;;;;;22.00;78.30;;;;;;4992096;28;1081;-67
2021/07/17 12:45:22;;;;;;;;;;;22.00;78.20;;;;;;4995028;28;1910;-66
2021/07/17 12:47:52;;;;;;;;;;;22.00;78.30;;;;;;4994790;28;1168;-66
2021/07/17 12:50:20;;;;;;;;;;;22.00;78.30;;;;;;5013546;28;1041;-66
2021/07/17 12:52:46;;;;;;;;;;;22.00;78.30;;;;;;5003642;28;1088;-66
2021/07/17 12:55:11;;;;;;;;;;;22.00;78.20;;;;;;4976084;28;1221;-66
2021/07/17 12:57:37;;;;;;;;;;;22.00;78.20;;;;;;4993495;28;1116;-66
2021/07/17 13:00:05;;;;;;;;;;;22.00;78.20;;;;;;4993422;28;1042;-66
2021/07/17 13:02:31;;;;;;;;;;;22.00;78.20;;;;;;4993854;28;1042;-67
2021/07/17 13:04:56;;;;;;;;;;;22.00;78.20;;;;;;4992912;28;1914;-65
2021/07/17 13:07:39;;;;;;;;;;;22.00;78.20;;;;;;4993419;28;1113;-67
2021/07/17 13:10:05;;;;;;;;;;;22.10;78.30;;;;;;4992943;28;1078;-66
2021/07/17 13:12:31;;;;;;;;;;;22.10;78.30;;;;;;4975826;28;986;-66
2021/07/17 13:14:56;;;;;;;;;;;22.00;78.20;;;;;;4975172;28;1699;-66
2021/07/17 13:17:22;;;;;;;;;;;22.10;78.30;;;;;;4993914;28;1121;-66
2021/07/17 13:20:08;;;;;;;;;;;22.00;78.20;;;;;;4976222;28;1093;-66
2021/07/17 13:22:43;;;;;;;;;;;22.10;78.30;;;;;;4992768;28;1101;-66
2021/07/17 13:25:12;;;;;;;;;;;22.00;78.20;;;;;;4992506;28;1973;-66
2021/07/17 13:27:37;;;;;;;;;;;22.00;78.20;;;;;;4993089;28;1136;-66
2021/07/17 13:30:03;;;;;;;;;;;22.00;78.20;;;;;;4993695;28;1129;-66
2021/07/17 13:32:32;;;;;;;;;;;22.00;78.30;;;;;;4975586;28;1129;-66
2021/07/17 13:35:13;;;;;;;;;;;22.00;78.30;;;;;;4992757;28;1264;-66
2021/07/17 13:37:38;;;;;;;;;;;22.00;78.30;;;;;;4993052;28;1089;-66
2021/07/17 13:40:06;;;;;;;;;;;22.00;78.30;;;;;;4993176;28;1073;-66
2021/07/17 13:42:31;;;;;;;;;;;22.00;78.30;;;;;;4993040;28;1089;-66
2021/07/17 13:45:04;;;;;;;;;;;22.00;78.30;;;;;;4991935;28;1918;-66
2021/07/17 13:47:39;;;;;;;;;;;22.00;79.00;;;;;;4982531;28;1089;-66
2021/07/17 13:50:22;;;;;;;;;;;22.00;78.30;;;;;;4995222;28;1097;-67
2021/07/17 13:52:48;;;;;;;;;;;22.00;78.30;;;;;;5002197;28;1080;-66
2021/07/17 13:55:23;;;;;;;;;;;22.10;78.30;;;;;;4974976;28;1203;-66
2021/07/17 13:57:49;;;;;;;;;;;22.00;78.30;;;;;;4992790;28;1061;-67
2021/07/17 14:00:15;;;;;;;;;;;22.00;78.30;;;;;;4975826;28;1114;-66
2021/07/17 14:02:41;;;;;;;;;;;22.00;78.30;;;;;;4975482;28;1045;-67
2021/07/17 14:05:07;;;;;;;;;;;22.00;78.30;;;;;;4975490;28;1886;-66
2021/07/17 14:07:32;;;;;;;;;;;22.10;78.40;;;;;;4992587;28;1081;-66
2021/07/17 14:09:58;;;;;;;;;;;22.10;78.40;;;;;;4992832;28;1145;-66
2021/07/17 14:12:26;;;;;;;;;;;22.10;78.40;;;;;;4992636;28;1062;-66
2021/07/17 14:14:52;;;;;;;;;;;22.10;78.30;;;;;;4992281;28;1185;-67
2021/07/17 14:17:18;;;;;;;;;;;22.00;78.30;;;;;;4992650;28;1061;-66
2021/07/17 14:19:45;;;;;;;;;;;22.00;78.20;;;;;;4993137;28;1196;-66
2021/07/17 14:22:11;;;;;;;;;;;22.10;78.30;;;;;;5006529;28;1038;-66
2021/07/17 14:24:36;;;;;;;;;;;22.00;78.20;;;;;;4996871;28;1898;-66
2021/07/17 14:27:02;;;;;;;;;;;22.00;78.20;;;;;;4996813;28;1169;-67